sensor_id;sensor_type;location;lat;lon;timestamp;P1;durP1;ratioP1;P2;durP2;ratioP2
53781;SDS011;39692;53.114;7.060;2022-08-03T00:01:41;8.15;;;4.90;;
53781;SDS011;39692;53.114;7.060;2022-08-03T00:04:08;8.35;;;4.68;;
53781;SDS011;39692;53.114;7.060;2022-08-03T00:06:35;8.02;;;5.00;;
53781;SDS011;39692;53.114;7.060;2022-08-03T00:09:01;6.72;;;4.38;;
53781;SDS011;39692;53.114;7.060;2022-08-03T00:11:28;8.65;;;4.35;;
53781;SDS011;39692;53.114;7.060;2022-08-03T00:13:53;8.23;;;5.15;;
53781;SDS011;39692;53.114;7.060;2022-08-03T00:16:19;6.78;;;4.22;;
53781;SDS011;39692;53.114;7.060;2022-08-03T00:18:44;10.00;;;3.97;;
53781;SDS011;39692;53.114;7.060;2022-08-03T00:21:10;8.60;;;4.00;;
53781;SDS011;39692;53.114;7.060;2022-08-03T00:23:36;7.35;;;3.70;;
53781;SDS011;39692;53.114;7.060;2022-08-03T00:26:02;6.38;;;3.63;;
53781;SDS011;39692;53.114;7.060;2022-08-03T00:28:28;8.00;;;4.00;;
53781;SDS011;39692;53.114;7.060;2022-08-03T00:30:54;9.10;;;4.05;;
53781;SDS011;39692;53.114;7.060;2022-08-03T00:33:20;8.05;;;4.28;;
53781;SDS011;39692;53.114;7.060;2022-08-03T00:35:46;10.18;;;4.10;;
53781;SDS011;39692;53.114;7.060;2022-08-03T00:38:13;7.35;;;3.58;;
53781;SDS011;39692;53.114;7.060;2022-08-03T00:40:39;9.18;;;3.75;;
53781;SDS011;39692;53.114;7.060;2022-08-03T00:43:05;8.38;;;3.53;;
53781;SDS011;39692;53.114;7.060;2022-08-03T00:45:32;8.90;;;3.60;;
53781;SDS011;39692;53.114;7.060;2022-08-03T00:47:59;7.30;;;3.53;;
53781;SDS011;39692;53.114;7.060;2022-08-03T00:50:27;10.00;;;3.42;;
53781;SDS011;39692;53.114;7.060;2022-08-03T00:52:55;5.82;;;3.30;;
53781;SDS011;39692;53.114;7.060;2022-08-03T00:55:23;6.32;;;3.28;;
53781;SDS011;39692;53.114;7.060;2022-08-03T00:57:49;6.63;;;3.53;;
53781;SDS011;39692;53.114;7.060;2022-08-03T01:00:17;6.13;;;3.45;;
53781;SDS011;39692;53.114;7.060;2022-08-03T01:02:44;7.45;;;3.17;;
53781;SDS011;39692;53.114;7.060;2022-08-03T01:05:10;7.18;;;3.78;;
53781;SDS011;39692;53.114;7.060;2022-08-03T01:07:42;5.38;;;3.20;;
53781;SDS011;39692;53.114;7.060;2022-08-03T01:13:12;6.97;;;3.55;;
53781;SDS011;39692;53.114;7.060;2022-08-03T01:21:01;9.38;;;3.60;;
53781;SDS011;39692;53.114;7.060;2022-08-03T01:23:42;7.20;;;3.15;;
53781;SDS011;39692;53.114;7.060;2022-08-03T01:26:41;8.98;;;3.65;;
53781;SDS011;39692;53.114;7.060;2022-08-03T01:32:17;6.05;;;3.15;;
53781;SDS011;39692;53.114;7.060;2022-08-03T01:34:46;6.20;;;2.95;;
53781;SDS011;39692;53.114;7.060;2022-08-03T01:37:18;9.18;;;3.50;;
53781;SDS011;39692;53.114;7.060;2022-08-03T01:39:50;8.27;;;3.30;;
53781;SDS011;39692;53.114;7.060;2022-08-03T01:42:20;9.23;;;3.50;;
53781;SDS011;39692;53.114;7.060;2022-08-03T01:44:47;8.35;;;3.13;;
53781;SDS011;39692;53.114;7.060;2022-08-03T01:47:15;6.43;;;3.17;;
53781;SDS011;39692;53.114;7.060;2022-08-03T01:49:44;8.75;;;3.58;;
53781;SDS011;39692;53.114;7.060;2022-08-03T01:52:12;6.70;;;3.25;;
53781;SDS011;39692;53.114;7.060;2022-08-03T01:54:42;10.38;;;3.20;;
53781;SDS011;39692;53.114;7.060;2022-08-03T01:57:10;7.78;;;3.53;;
53781;SDS011;39692;53.114;7.060;2022-08-03T01:59:37;8.25;;;3.65;;
53781;SDS011;39692;53.114;7.060;2022-08-03T02:02:05;7.47;;;3.58;;
53781;SDS011;39692;53.114;7.060;2022-08-03T02:04:32;8.35;;;3.10;;
53781;SDS011;39692;53.114;7.060;2022-08-03T02:07:00;7.68;;;3.63;;
53781;SDS011;39692;53.114;7.060;2022-08-03T02:09:28;7.95;;;2.83;;
53781;SDS011;39692;53.114;7.060;2022-08-03T02:11:55;6.90;;;3.25;;
53781;SDS011;39692;53.114;7.060;2022-08-03T02:14:22;7.70;;;3.60;;
53781;SDS011;39692;53.114;7.060;2022-08-03T02:16:49;8.43;;;3.10;;
53781;SDS011;39692;53.114;7.060;2022-08-03T02:19:15;5.47;;;3.38;;
53781;SDS011;39692;53.114;7.060;2022-08-03T02:21:43;6.43;;;3.20;;
53781;SDS011;39692;53.114;7.060;2022-08-03T02:24:10;8.65;;;3.47;;
53781;SDS011;39692;53.114;7.060;2022-08-03T02:26:37;8.88;;;3.28;;
53781;SDS011;39692;53.114;7.060;2022-08-03T02:29:06;7.28;;;3.65;;
53781;SDS011;39692;53.114;7.060;2022-08-03T02:31:37;7.22;;;3.75;;
53781;SDS011;39692;53.114;7.060;2022-08-03T02:34:07;10.02;;;3.55;;
53781;SDS011;39692;53.114;7.060;2022-08-03T02:36:36;11.35;;;3.90;;
53781;SDS011;39692;53.114;7.060;2022-08-03T02:39:03;6.93;;;4.05;;
53781;SDS011;39692;53.114;7.060;2022-08-03T02:41:34;7.97;;;4.45;;
53781;SDS011;39692;53.114;7.060;2022-08-03T02:44:02;7.22;;;4.20;;
53781;SDS011;39692;53.114;7.060;2022-08-03T02:46:34;9.48;;;4.55;;
53781;SDS011;39692;53.114;7.060;2022-08-03T02:49:06;9.00;;;4.78;;
53781;SDS011;39692;53.114;7.060;2022-08-03T02:51:35;8.23;;;4.68;;
53781;SDS011;39692;53.114;7.060;2022-08-03T02:54:02;10.15;;;5.15;;
53781;SDS011;39692;53.114;7.060;2022-08-03T02:56:29;10.32;;;4.80;;
53781;SDS011;39692;53.114;7.060;2022-08-03T02:58:55;8.38;;;4.97;;
53781;SDS011;39692;53.114;7.060;2022-08-03T03:01:23;6.18;;;4.63;;
53781;SDS011;39692;53.114;7.060;2022-08-03T03:03:51;10.05;;;4.68;;
53781;SDS011;39692;53.114;7.060;2022-08-03T03:06:18;6.70;;;4.85;;
53781;SDS011;39692;53.114;7.060;2022-08-03T03:08:46;8.63;;;5.25;;
53781;SDS011;39692;53.114;7.060;2022-08-03T03:11:13;11.77;;;4.88;;
53781;SDS011;39692;53.114;7.060;2022-08-03T03:13:42;6.80;;;4.63;;
53781;SDS011;39692;53.114;7.060;2022-08-03T03:16:09;10.18;;;4.85;;
53781;SDS011;39692;53.114;7.060;2022-08-03T03:18:37;9.18;;;4.72;;
53781;SDS011;39692;53.114;7.060;2022-08-03T03:21:03;10.70;;;4.90;;
53781;SDS011;39692;53.114;7.060;2022-08-03T03:23:31;7.05;;;4.45;;
53781;SDS011;39692;53.114;7.060;2022-08-03T03:26:03;10.10;;;5.05;;
53781;SDS011;39692;53.114;7.060;2022-08-03T03:28:30;8.35;;;5.47;;
53781;SDS011;39692;53.114;7.060;2022-08-03T03:30:56;9.25;;;5.07;;
53781;SDS011;39692;53.114;7.060;2022-08-03T03:33:22;12.55;;;5.18;;
53781;SDS011;39692;53.114;7.060;2022-08-03T03:35:49;9.18;;;4.47;;
53781;SDS011;39692;53.114;7.060;2022-08-03T03:38:15;10.57;;;4.63;;
53781;SDS011;39692;53.114;7.060;2022-08-03T03:40:41;10.20;;;4.32;;
53781;SDS011;39692;53.114;7.060;2022-08-03T03:43:08;7.78;;;4.10;;
53781;SDS011;39692;53.114;7.060;2022-08-03T03:45:35;8.68;;;4.57;;
53781;SDS011;39692;53.114;7.060;2022-08-03T03:48:05;7.65;;;4.20;;
53781;SDS011;39692;53.114;7.060;2022-08-03T03:50:32;7.63;;;3.97;;
53781;SDS011;39692;53.114;7.060;2022-08-03T03:52:58;6.05;;;4.03;;
53781;SDS011;39692;53.114;7.060;2022-08-03T03:55:25;7.25;;;4.53;;
53781;SDS011;39692;53.114;7.060;2022-08-03T03:57:50;8.18;;;4.63;;
53781;SDS011;39692;53.114;7.060;2022-08-03T04:00:16;10.80;;;5.03;;
53781;SDS011;39692;53.114;7.060;2022-08-03T04:02:43;11.05;;;5.05;;
53781;SDS011;39692;53.114;7.060;2022-08-03T04:05:09;11.05;;;5.53;;
53781;SDS011;39692;53.114;7.060;2022-08-03T04:07:57;10.63;;;5.38;;
53781;SDS011;39692;53.114;7.060;2022-08-03T04:10:46;9.38;;;5.32;;
53781;SDS011;39692;53.114;7.060;2022-08-03T04:13:26;9.35;;;4.70;;
53781;SDS011;39692;53.114;7.060;2022-08-03T04:16:21;7.88;;;4.90;;
53781;SDS011;39692;53.114;7.060;2022-08-03T04:18:58;9.23;;;4.90;;
53781;SDS011;39692;53.114;7.060;2022-08-03T04:21:42;8.27;;;4.75;;
53781;SDS011;39692;53.114;7.060;2022-08-03T04:24:12;12.95;;;5.35;;
53781;SDS011;39692;53.114;7.060;2022-08-03T04:26:39;9.68;;;5.13;;
53781;SDS011;39692;53.114;7.060;2022-08-03T04:29:07;9.40;;;5.53;;
53781;SDS011;39692;53.114;7.060;2022-08-03T04:31:34;9.18;;;5.80;;
53781;SDS011;39692;53.114;7.060;2022-08-03T04:34:02;8.18;;;4.57;;
53781;SDS011;39692;53.114;7.060;2022-08-03T04:36:31;9.32;;;4.35;;
53781;SDS011;39692;53.114;7.060;2022-08-03T04:41:29;8.80;;;4.82;;
53781;SDS011;39692;53.114;7.060;2022-08-03T04:43:57;9.52;;;4.72;;
53781;SDS011;39692;53.114;7.060;2022-08-03T04:46:37;6.35;;;4.03;;
53781;SDS011;39692;53.114;7.060;2022-08-03T04:49:04;7.07;;;4.57;;
53781;SDS011;39692;53.114;7.060;2022-08-03T04:51:31;8.40;;;5.13;;
53781;SDS011;39692;53.114;7.060;2022-08-03T04:53:58;8.02;;;4.90;;
53781;SDS011;39692;53.114;7.060;2022-08-03T04:56:24;10.73;;;5.35;;
53781;SDS011;39692;53.114;7.060;2022-08-03T04:58:50;7.88;;;4.40;;
53781;SDS011;39692;53.114;7.060;2022-08-03T05:01:17;8.18;;;4.57;;
53781;SDS011;39692;53.114;7.060;2022-08-03T05:03:44;9.30;;;4.80;;
53781;SDS011;39692;53.114;7.060;2022-08-03T05:06:11;12.70;;;4.80;;
53781;SDS011;39692;53.114;7.060;2022-08-03T05:08:37;10.57;;;4.95;;
53781;SDS011;39692;53.114;7.060;2022-08-03T05:11:03;12.32;;;4.60;;
53781;SDS011;39692;53.114;7.060;2022-08-03T05:13:29;10.02;;;4.20;;
53781;SDS011;39692;53.114;7.060;2022-08-03T05:15:54;12.73;;;4.28;;
53781;SDS011;39692;53.114;7.060;2022-08-03T05:18:20;9.00;;;3.92;;
53781;SDS011;39692;53.114;7.060;2022-08-03T05:20:46;8.13;;;3.60;;
53781;SDS011;39692;53.114;7.060;2022-08-03T05:23:11;9.38;;;4.00;;
53781;SDS011;39692;53.114;7.060;2022-08-03T05:25:37;8.63;;;3.85;;
53781;SDS011;39692;53.114;7.060;2022-08-03T05:28:03;8.15;;;4.00;;
53781;SDS011;39692;53.114;7.060;2022-08-03T05:30:29;10.40;;;4.00;;
53781;SDS011;39692;53.114;7.060;2022-08-03T05:32:55;8.65;;;3.90;;
53781;SDS011;39692;53.114;7.060;2022-08-03T05:35:20;8.95;;;4.10;;
53781;SDS011;39692;53.114;7.060;2022-08-03T05:37:46;7.50;;;4.00;;
53781;SDS011;39692;53.114;7.060;2022-08-03T05:40:12;10.98;;;4.43;;
53781;SDS011;39692;53.114;7.060;2022-08-03T05:42:38;9.75;;;4.25;;
53781;SDS011;39692;53.114;7.060;2022-08-03T05:45:12;9.90;;;4.03;;
53781;SDS011;39692;53.114;7.060;2022-08-03T05:47:39;10.23;;;3.90;;
53781;SDS011;39692;53.114;7.060;2022-08-03T05:50:09;7.15;;;3.63;;
53781;SDS011;39692;53.114;7.060;2022-08-03T05:52:36;11.38;;;4.13;;
53781;SDS011;39692;53.114;7.060;2022-08-03T05:55:02;10.43;;;3.75;;
53781;SDS011;39692;53.114;7.060;2022-08-03T05:57:30;8.65;;;3.38;;
53781;SDS011;39692;53.114;7.060;2022-08-03T05:59:55;11.57;;;3.90;;
53781;SDS011;39692;53.114;7.060;2022-08-03T06:02:21;8.57;;;3.28;;
53781;SDS011;39692;53.114;7.060;2022-08-03T06:04:46;9.23;;;4.50;;
53781;SDS011;39692;53.114;7.060;2022-08-03T06:07:12;11.75;;;4.47;;
53781;SDS011;39692;53.114;7.060;2022-08-03T06:09:38;10.35;;;4.05;;
53781;SDS011;39692;53.114;7.060;2022-08-03T06:12:05;6.45;;;3.65;;
53781;SDS011;39692;53.114;7.060;2022-08-03T06:14:31;9.88;;;4.18;;
53781;SDS011;39692;53.114;7.060;2022-08-03T06:16:57;9.07;;;3.95;;
53781;SDS011;39692;53.114;7.060;2022-08-03T06:19:22;11.48;;;4.13;;
53781;SDS011;39692;53.114;7.060;2022-08-03T06:21:48;11.27;;;3.78;;
53781;SDS011;39692;53.114;7.060;2022-08-03T06:24:14;8.88;;;3.95;;
53781;SDS011;39692;53.114;7.060;2022-08-03T06:26:40;12.07;;;4.18;;
53781;SDS011;39692;53.114;7.060;2022-08-03T06:29:06;9.68;;;4.10;;
53781;SDS011;39692;53.114;7.060;2022-08-03T06:31:32;8.88;;;4.22;;
53781;SDS011;39692;53.114;7.060;2022-08-03T06:33:57;10.73;;;4.68;;
53781;SDS011;39692;53.114;7.060;2022-08-03T06:36:23;11.75;;;4.47;;
53781;SDS011;39692;53.114;7.060;2022-08-03T06:38:55;8.70;;;3.65;;
53781;SDS011;39692;53.114;7.060;2022-08-03T06:41:22;8.38;;;3.78;;
53781;SDS011;39692;53.114;7.060;2022-08-03T06:43:48;10.07;;;3.97;;
53781;SDS011;39692;53.114;7.060;2022-08-03T06:46:13;8.18;;;4.00;;
53781;SDS011;39692;53.114;7.060;2022-08-03T06:48:40;9.00;;;3.72;;
53781;SDS011;39692;53.114;7.060;2022-08-03T06:51:06;11.05;;;4.22;;
53781;SDS011;39692;53.114;7.060;2022-08-03T06:53:31;11.15;;;3.97;;
53781;SDS011;39692;53.114;7.060;2022-08-03T06:55:57;8.82;;;4.25;;
53781;SDS011;39692;53.114;7.060;2022-08-03T06:58:23;10.52;;;4.18;;
53781;SDS011;39692;53.114;7.060;2022-08-03T07:00:49;8.63;;;3.55;;
53781;SDS011;39692;53.114;7.060;2022-08-03T07:03:14;12.50;;;4.07;;
53781;SDS011;39692;53.114;7.060;2022-08-03T07:05:41;15.32;;;4.72;;
53781;SDS011;39692;53.114;7.060;2022-08-03T07:08:07;11.25;;;3.85;;
53781;SDS011;39692;53.114;7.060;2022-08-03T07:10:33;9.68;;;3.75;;
53781;SDS011;39692;53.114;7.060;2022-08-03T07:13:00;10.13;;;3.50;;
53781;SDS011;39692;53.114;7.060;2022-08-03T07:15:25;10.35;;;3.97;;
53781;SDS011;39692;53.114;7.060;2022-08-03T07:17:51;15.13;;;3.83;;
53781;SDS011;39692;53.114;7.060;2022-08-03T07:20:17;11.13;;;3.50;;
53781;SDS011;39692;53.114;7.060;2022-08-03T07:22:43;9.85;;;3.90;;
53781;SDS011;39692;53.114;7.060;2022-08-03T07:25:09;12.10;;;3.65;;
53781;SDS011;39692;53.114;7.060;2022-08-03T07:27:35;7.90;;;3.47;;
53781;SDS011;39692;53.114;7.060;2022-08-03T07:30:04;8.75;;;3.42;;
53781;SDS011;39692;53.114;7.060;2022-08-03T07:32:31;9.73;;;3.25;;
53781;SDS011;39692;53.114;7.060;2022-08-03T07:34:57;10.05;;;3.75;;
53781;SDS011;39692;53.114;7.060;2022-08-03T07:37:23;11.23;;;3.70;;
53781;SDS011;39692;53.114;7.060;2022-08-03T07:39:48;11.80;;;3.70;;
53781;SDS011;39692;53.114;7.060;2022-08-03T07:42:14;7.38;;;3.03;;
53781;SDS011;39692;53.114;7.060;2022-08-03T07:44:40;9.73;;;3.47;;
53781;SDS011;39692;53.114;7.060;2022-08-03T07:47:05;8.98;;;3.83;;
53781;SDS011;39692;53.114;7.060;2022-08-03T07:49:31;8.90;;;3.60;;
53781;SDS011;39692;53.114;7.060;2022-08-03T07:51:57;12.10;;;3.95;;
53781;SDS011;39692;53.114;7.060;2022-08-03T07:54:41;9.90;;;3.90;;
53781;SDS011;39692;53.114;7.060;2022-08-03T07:57:06;8.80;;;2.92;;
53781;SDS011;39692;53.114;7.060;2022-08-03T07:59:32;10.25;;;3.50;;
53781;SDS011;39692;53.114;7.060;2022-08-03T08:01:59;7.65;;;3.30;;
53781;SDS011;39692;53.114;7.060;2022-08-03T08:04:25;8.50;;;2.90;;
53781;SDS011;39692;53.114;7.060;2022-08-03T08:06:50;9.05;;;3.53;;
53781;SDS011;39692;53.114;7.060;2022-08-03T08:09:16;10.90;;;2.90;;
53781;SDS011;39692;53.114;7.060;2022-08-03T08:11:42;9.38;;;3.05;;
53781;SDS011;39692;53.114;7.060;2022-08-03T08:14:07;11.60;;;3.55;;
53781;SDS011;39692;53.114;7.060;2022-08-03T08:16:33;10.52;;;2.97;;
53781;SDS011;39692;53.114;7.060;2022-08-03T08:18:59;14.95;;;3.42;;
53781;SDS011;39692;53.114;7.060;2022-08-03T08:21:26;7.85;;;2.65;;
53781;SDS011;39692;53.114;7.060;2022-08-03T08:23:52;8.48;;;2.63;;
53781;SDS011;39692;53.114;7.060;2022-08-03T08:26:17;5.35;;;2.90;;
53781;SDS011;39692;53.114;7.060;2022-08-03T08:28:43;7.85;;;2.33;;
53781;SDS011;39692;53.114;7.060;2022-08-03T08:31:09;8.68;;;2.70;;
53781;SDS011;39692;53.114;7.060;2022-08-03T08:33:35;8.45;;;3.05;;
53781;SDS011;39692;53.114;7.060;2022-08-03T08:36:00;7.78;;;2.72;;
53781;SDS011;39692;53.114;7.060;2022-08-03T08:38:28;8.48;;;2.53;;
53781;SDS011;39692;53.114;7.060;2022-08-03T08:40:54;10.38;;;2.80;;
53781;SDS011;39692;53.114;7.060;2022-08-03T08:43:20;9.18;;;2.85;;
53781;SDS011;39692;53.114;7.060;2022-08-03T08:45:49;9.82;;;2.70;;
53781;SDS011;39692;53.114;7.060;2022-08-03T08:48:17;10.75;;;2.70;;
53781;SDS011;39692;53.114;7.060;2022-08-03T08:50:47;8.30;;;3.00;;
53781;SDS011;39692;53.114;7.060;2022-08-03T08:53:16;12.73;;;3.47;;
53781;SDS011;39692;53.114;7.060;2022-08-03T08:55:44;5.68;;;2.47;;
53781;SDS011;39692;53.114;7.060;2022-08-03T08:58:11;9.52;;;2.80;;
53781;SDS011;39692;53.114;7.060;2022-08-03T09:00:40;8.55;;;2.75;;
53781;SDS011;39692;53.114;7.060;2022-08-03T09:03:09;11.55;;;2.97;;
53781;SDS011;39692;53.114;7.060;2022-08-03T09:05:38;10.90;;;3.63;;
53781;SDS011;39692;53.114;7.060;2022-08-03T09:08:07;9.38;;;2.70;;
53781;SDS011;39692;53.114;7.060;2022-08-03T09:10:33;9.20;;;3.13;;
53781;SDS011;39692;53.114;7.060;2022-08-03T09:12:59;8.45;;;2.72;;
53781;SDS011;39692;53.114;7.060;2022-08-03T09:15:26;8.52;;;2.80;;
53781;SDS011;39692;53.114;7.060;2022-08-03T09:17:56;9.00;;;3.13;;
53781;SDS011;39692;53.114;7.060;2022-08-03T09:20:28;8.40;;;3.03;;
53781;SDS011;39692;53.114;7.060;2022-08-03T09:22:58;13.02;;;3.22;;
53781;SDS011;39692;53.114;7.060;2022-08-03T09:25:32;10.30;;;3.00;;
53781;SDS011;39692;53.114;7.060;2022-08-03T09:28:09;10.20;;;2.50;;
53781;SDS011;39692;53.114;7.060;2022-08-03T09:30:36;9.13;;;2.85;;
53781;SDS011;39692;53.114;7.060;2022-08-03T09:33:04;9.57;;;3.30;;
53781;SDS011;39692;53.114;7.060;2022-08-03T09:35:32;8.55;;;2.83;;
53781;SDS011;39692;53.114;7.060;2022-08-03T09:40:50;8.75;;;2.80;;
53781;SDS011;39692;53.114;7.060;2022-08-03T09:43:16;8.88;;;3.20;;
53781;SDS011;39692;53.114;7.060;2022-08-03T09:45:42;9.18;;;3.78;;
53781;SDS011;39692;53.114;7.060;2022-08-03T09:48:24;10.60;;;2.85;;
53781;SDS011;39692;53.114;7.060;2022-08-03T09:51:01;7.60;;;2.90;;
53781;SDS011;39692;53.114;7.060;2022-08-03T09:53:29;8.40;;;2.67;;
53781;SDS011;39692;53.114;7.060;2022-08-03T09:55:56;8.98;;;2.80;;
53781;SDS011;39692;53.114;7.060;2022-08-03T09:58:23;9.82;;;3.10;;
53781;SDS011;39692;53.114;7.060;2022-08-03T10:01:00;7.13;;;2.65;;
53781;SDS011;39692;53.114;7.060;2022-08-03T10:03:33;6.53;;;2.28;;
53781;SDS011;39692;53.114;7.060;2022-08-03T10:06:17;6.65;;;2.63;;
53781;SDS011;39692;53.114;7.060;2022-08-03T10:08:44;7.87;;;2.67;;
53781;SDS011;39692;53.114;7.060;2022-08-03T10:11:31;7.55;;;3.13;;
53781;SDS011;39692;53.114;7.060;2022-08-03T10:13:59;9.98;;;3.08;;
53781;SDS011;39692;53.114;7.060;2022-08-03T10:16:29;7.43;;;2.70;;
53781;SDS011;39692;53.114;7.060;2022-08-03T10:18:58;7.28;;;2.90;;
53781;SDS011;39692;53.114;7.060;2022-08-03T10:21:24;6.43;;;2.80;;
53781;SDS011;39692;53.114;7.060;2022-08-03T10:23:52;10.02;;;2.75;;
53781;SDS011;39692;53.114;7.060;2022-08-03T10:26:20;11.10;;;3.22;;
53781;SDS011;39692;53.114;7.060;2022-08-03T10:28:49;7.80;;;2.72;;
53781;SDS011;39692;53.114;7.060;2022-08-03T10:31:17;5.80;;;2.88;;
53781;SDS011;39692;53.114;7.060;2022-08-03T10:33:47;8.80;;;2.33;;
53781;SDS011;39692;53.114;7.060;2022-08-03T10:36:14;8.07;;;2.78;;
53781;SDS011;39692;53.114;7.060;2022-08-03T10:38:47;7.13;;;2.50;;
53781;SDS011;39692;53.114;7.060;2022-08-03T10:41:18;9.98;;;3.13;;
53781;SDS011;39692;53.114;7.060;2022-08-03T10:46:30;12.13;;;3.13;;
53781;SDS011;39692;53.114;7.060;2022-08-03T10:48:59;7.15;;;2.40;;
53781;SDS011;39692;53.114;7.060;2022-08-03T10:51:25;9.02;;;2.70;;
53781;SDS011;39692;53.114;7.060;2022-08-03T10:53:56;11.07;;;2.95;;
53781;SDS011;39692;53.114;7.060;2022-08-03T10:59:19;13.13;;;2.80;;
53781;SDS011;39692;53.114;7.060;2022-08-03T11:02:10;9.35;;;3.30;;
53781;SDS011;39692;53.114;7.060;2022-08-03T11:04:38;9.40;;;2.70;;
53781;SDS011;39692;53.114;7.060;2022-08-03T11:09:55;10.05;;;2.90;;
53781;SDS011;39692;53.114;7.060;2022-08-03T11:12:24;9.02;;;2.97;;
53781;SDS011;39692;53.114;7.060;2022-08-03T11:14:55;9.50;;;2.80;;
53781;SDS011;39692;53.114;7.060;2022-08-03T11:17:22;9.73;;;3.00;;
53781;SDS011;39692;53.114;7.060;2022-08-03T11:19:48;9.75;;;2.65;;
53781;SDS011;39692;53.114;7.060;2022-08-03T11:22:16;9.18;;;2.70;;
53781;SDS011;39692;53.114;7.060;2022-08-03T11:46:04;11.65;;;3.58;;
53781;SDS011;39692;53.114;7.060;2022-08-03T11:48:40;11.77;;;3.58;;
53781;SDS011;39692;53.114;7.060;2022-08-03T11:51:27;11.80;;;3.60;;
53781;SDS011;39692;53.114;7.060;2022-08-03T11:53:54;11.27;;;3.60;;
53781;SDS011;39692;53.114;7.060;2022-08-03T11:56:21;13.95;;;3.50;;
53781;SDS011;39692;53.114;7.060;2022-08-03T11:58:48;17.75;;;4.00;;
53781;SDS011;39692;53.114;7.060;2022-08-03T12:01:17;17.15;;;3.72;;
53781;SDS011;39692;53.114;7.060;2022-08-03T12:03:44;8.85;;;3.20;;
53781;SDS011;39692;53.114;7.060;2022-08-03T12:06:10;12.25;;;3.00;;
53781;SDS011;39692;53.114;7.060;2022-08-03T12:08:37;11.25;;;3.45;;
53781;SDS011;39692;53.114;7.060;2022-08-03T12:11:05;9.98;;;3.42;;
53781;SDS011;39692;53.114;7.060;2022-08-03T12:13:35;13.38;;;3.03;;
53781;SDS011;39692;53.114;7.060;2022-08-03T12:16:03;10.13;;;2.90;;
53781;SDS011;39692;53.114;7.060;2022-08-03T12:18:29;10.85;;;3.20;;
53781;SDS011;39692;53.114;7.060;2022-08-03T12:21:02;12.05;;;3.53;;
53781;SDS011;39692;53.114;7.060;2022-08-03T12:23:35;10.80;;;3.45;;
53781;SDS011;39692;53.114;7.060;2022-08-03T12:26:03;12.10;;;3.58;;
53781;SDS011;39692;53.114;7.060;2022-08-03T12:28:30;10.93;;;3.28;;
53781;SDS011;39692;53.114;7.060;2022-08-03T12:30:59;12.98;;;2.72;;
53781;SDS011;39692;53.114;7.060;2022-08-03T12:36:26;11.80;;;2.90;;
53781;SDS011;39692;53.114;7.060;2022-08-03T12:38:54;10.57;;;2.85;;
53781;SDS011;39692;53.114;7.060;2022-08-03T12:41:34;14.18;;;3.60;;
53781;SDS011;39692;53.114;7.060;2022-08-03T12:44:01;6.88;;;2.90;;
53781;SDS011;39692;53.114;7.060;2022-08-03T12:46:33;10.38;;;3.25;;
53781;SDS011;39692;53.114;7.060;2022-08-03T12:49:05;11.73;;;3.03;;
53781;SDS011;39692;53.114;7.060;2022-08-03T12:54:06;14.13;;;3.13;;
53781;SDS011;39692;53.114;7.060;2022-08-03T12:56:33;14.90;;;3.63;;
53781;SDS011;39692;53.114;7.060;2022-08-03T12:58:59;11.65;;;2.78;;
53781;SDS011;39692;53.114;7.060;2022-08-03T13:01:25;14.35;;;3.33;;
53781;SDS011;39692;53.114;7.060;2022-08-03T13:04:00;12.73;;;2.92;;
53781;SDS011;39692;53.114;7.060;2022-08-03T13:06:25;18.20;;;3.58;;
53781;SDS011;39692;53.114;7.060;2022-08-03T13:09:00;10.55;;;3.30;;
53781;SDS011;39692;53.114;7.060;2022-08-03T13:11:27;10.13;;;3.30;;
53781;SDS011;39692;53.114;7.060;2022-08-03T13:13:53;14.75;;;3.42;;
53781;SDS011;39692;53.114;7.060;2022-08-03T13:16:20;9.98;;;2.90;;
53781;SDS011;39692;53.114;7.060;2022-08-03T13:18:50;8.07;;;2.70;;
53781;SDS011;39692;53.114;7.060;2022-08-03T13:21:17;8.02;;;2.40;;
53781;SDS011;39692;53.114;7.060;2022-08-03T13:23:44;8.93;;;3.10;;
53781;SDS011;39692;53.114;7.060;2022-08-03T13:26:10;9.10;;;2.72;;
53781;SDS011;39692;53.114;7.060;2022-08-03T13:28:37;8.73;;;2.90;;
53781;SDS011;39692;53.114;7.060;2022-08-03T13:31:03;13.30;;;2.95;;
53781;SDS011;39692;53.114;7.060;2022-08-03T13:33:29;14.60;;;3.08;;
53781;SDS011;39692;53.114;7.060;2022-08-03T13:35:55;10.52;;;2.70;;
53781;SDS011;39692;53.114;7.060;2022-08-03T13:38:20;10.48;;;2.65;;
53781;SDS011;39692;53.114;7.060;2022-08-03T13:40:46;13.40;;;3.38;;
53781;SDS011;39692;53.114;7.060;2022-08-03T13:43:12;14.38;;;3.10;;
53781;SDS011;39692;53.114;7.060;2022-08-03T13:45:37;9.90;;;2.78;;
53781;SDS011;39692;53.114;7.060;2022-08-03T13:48:03;9.25;;;2.72;;
53781;SDS011;39692;53.114;7.060;2022-08-03T13:50:29;8.93;;;2.97;;
53781;SDS011;39692;53.114;7.060;2022-08-03T13:52:58;6.65;;;2.72;;
53781;SDS011;39692;53.114;7.060;2022-08-03T13:55:23;11.65;;;2.90;;
53781;SDS011;39692;53.114;7.060;2022-08-03T13:57:49;8.40;;;2.45;;
53781;SDS011;39692;53.114;7.060;2022-08-03T14:00:15;9.50;;;2.83;;
53781;SDS011;39692;53.114;7.060;2022-08-03T14:02:42;13.38;;;2.70;;
53781;SDS011;39692;53.114;7.060;2022-08-03T14:05:08;7.68;;;2.40;;
53781;SDS011;39692;53.114;7.060;2022-08-03T14:07:34;9.43;;;2.33;;
53781;SDS011;39692;53.114;7.060;2022-08-03T14:09:59;7.28;;;2.17;;
53781;SDS011;39692;53.114;7.060;2022-08-03T14:12:26;8.77;;;2.05;;
53781;SDS011;39692;53.114;7.060;2022-08-03T14:14:52;9.32;;;2.13;;
53781;SDS011;39692;53.114;7.060;2022-08-03T14:17:18;8.88;;;1.70;;
53781;SDS011;39692;53.114;7.060;2022-08-03T14:19:43;7.38;;;2.10;;
53781;SDS011;39692;53.114;7.060;2022-08-03T14:22:09;8.27;;;2.22;;
53781;SDS011;39692;53.114;7.060;2022-08-03T14:24:35;6.82;;;2.15;;
53781;SDS011;39692;53.114;7.060;2022-08-03T14:27:00;6.55;;;2.50;;
53781;SDS011;39692;53.114;7.060;2022-08-03T14:29:26;8.27;;;2.05;;
53781;SDS011;39692;53.114;7.060;2022-08-03T14:31:52;7.25;;;2.25;;
53781;SDS011;39692;53.114;7.060;2022-08-03T14:34:17;8.55;;;2.50;;
53781;SDS011;39692;53.114;7.060;2022-08-03T14:36:43;15.18;;;2.42;;
53781;SDS011;39692;53.114;7.060;2022-08-03T14:39:11;7.90;;;2.63;;
53781;SDS011;39692;53.114;7.060;2022-08-03T14:41:37;12.75;;;2.95;;
53781;SDS011;39692;53.114;7.060;2022-08-03T14:44:02;11.52;;;2.50;;
53781;SDS011;39692;53.114;7.060;2022-08-03T14:46:29;12.20;;;2.55;;
53781;SDS011;39692;53.114;7.060;2022-08-03T14:48:55;7.65;;;2.65;;
53781;SDS011;39692;53.114;7.060;2022-08-03T14:51:21;10.68;;;3.17;;
53781;SDS011;39692;53.114;7.060;2022-08-03T14:53:46;10.32;;;2.65;;
53781;SDS011;39692;53.114;7.060;2022-08-03T14:56:12;12.43;;;3.13;;
53781;SDS011;39692;53.114;7.060;2022-08-03T14:58:38;10.00;;;2.60;;
53781;SDS011;39692;53.114;7.060;2022-08-03T15:01:03;11.88;;;3.00;;
53781;SDS011;39692;53.114;7.060;2022-08-03T15:03:29;7.15;;;2.40;;
53781;SDS011;39692;53.114;7.060;2022-08-03T15:05:55;7.07;;;2.40;;
53781;SDS011;39692;53.114;7.060;2022-08-03T15:08:22;8.07;;;2.80;;
53781;SDS011;39692;53.114;7.060;2022-08-03T15:10:49;12.38;;;2.78;;
53781;SDS011;39692;53.114;7.060;2022-08-03T15:13:15;13.98;;;3.40;;
53781;SDS011;39692;53.114;7.060;2022-08-03T15:15:41;10.43;;;2.80;;
53781;SDS011;39692;53.114;7.060;2022-08-03T15:18:07;10.13;;;3.38;;
53781;SDS011;39692;53.114;7.060;2022-08-03T15:20:33;12.20;;;2.75;;
53781;SDS011;39692;53.114;7.060;2022-08-03T15:22:59;8.18;;;2.60;;
53781;SDS011;39692;53.114;7.060;2022-08-03T15:25:24;11.57;;;3.20;;
53781;SDS011;39692;53.114;7.060;2022-08-03T15:27:51;9.13;;;2.70;;
53781;SDS011;39692;53.114;7.060;2022-08-03T15:30:17;9.73;;;2.85;;
53781;SDS011;39692;53.114;7.060;2022-08-03T15:32:43;8.70;;;2.92;;
53781;SDS011;39692;53.114;7.060;2022-08-03T15:35:08;11.02;;;3.22;;
53781;SDS011;39692;53.114;7.060;2022-08-03T15:37:34;11.55;;;2.67;;
53781;SDS011;39692;53.114;7.060;2022-08-03T15:40:00;15.70;;;3.47;;